Time;durP1;ratioP1;P1;durP2;ratioP2;P2;SDS_P1;SDS_P2;PMS_P1;PMS_P2;Temp;Humidity;BMP_temperature;BMP_pressure;BME280_temperature;BME280_humidity;BME280_pressure;Samples;Min_cycle;Max_cycle;Signal;HPM_P1;HPM_P2
2022/06/14 04:01:34;;;;;;;13.98;8.23;;;11.50;99.90;;;;;;5583858;22;20088;-83
2022/06/14 04:04:27;;;;;;;11.93;8.85;;;11.40;99.90;;;;;;5063062;28;20402;-82
2022/06/14 04:07:28;;;;;;;17.52;8.57;;;11.50;99.90;;;;;;5064113;28;20474;-83
2022/06/14 04:10:15;;;;;;;11.40;8.43;;;11.40;99.90;;;;;;5061950;28;20117;-83
2022/06/14 04:13:10;;;;;;;13.15;8.80;;;11.50;99.90;;;;;;5042134;28;20030;-82
2022/06/14 04:15:59;;;;;;;10.43;8.20;;;11.40;99.90;;;;;;5042676;22;20571;-77
2022/06/14 04:18:36;;;;;;;15.30;8.38;;;11.40;99.90;;;;;;5013231;28;20093;-77
2022/06/14 04:21:11;;;;;;;13.50;8.50;;;11.30;99.90;;;;;;5014858;28;20487;-77
2022/06/14 04:23:59;;;;;;;17.50;9.13;;;11.30;99.90;;;;;;5016249;28;20558;-76
2022/06/14 04:26:46;;;;;;;12.18;9.52;;;11.30;99.90;;;;;;4998082;28;20039;-76
2022/06/14 04:29:33;;;;;;;14.20;9.88;;;11.40;99.90;;;;;;4998348;28;20038;-76
2022/06/14 04:32:26;;;;;;;14.80;9.70;;;11.40;99.90;;;;;;4996965;28;20035;-77
2022/06/14 04:35:07;;;;;;;13.07;9.45;;;11.40;99.90;;;;;;4998098;28;20602;-76
2022/06/14 04:37:44;;;;;;;18.13;9.38;;;11.40;99.90;;;;;;4998036;28;20031;-76
2022/06/14 04:40:19;;;;;;;14.73;9.15;;;11.50;99.90;;;;;;4998423;28;20034;-76
2022/06/14 04:42:54;;;;;;;13.93;9.07;;;11.50;99.90;;;;;;4998110;28;20551;-76
2022/06/14 04:45:30;;;;;;;12.13;8.73;;;11.50;99.90;;;;;;4998083;28;20038;-76
2022/06/14 04:48:04;;;;;;;15.93;8.95;;;11.40;99.90;;;;;;4997883;28;20035;-76
2022/06/14 04:50:42;;;;;;;15.00;9.15;;;11.40;99.90;;;;;;4996668;28;20042;-76
2022/06/14 04:53:18;;;;;;;11.73;8.20;;;11.40;99.90;;;;;;4998102;28;20158;-76
2022/06/14 04:55:53;;;;;;;13.80;8.60;;;11.50;99.90;;;;;;4997848;28;20125;-76
2022/06/14 04:58:37;;;;;;;11.43;7.85;;;11.50;99.90;;;;;;4997784;28;20511;-76
2022/06/14 05:01:10;;;;;;;13.63;7.85;;;11.60;99.90;;;;;;4997936;28;20041;-76
2022/06/14 05:03:44;;;;;;;15.55;8.85;;;11.70;99.90;;;;;;4997984;28;20461;-76
2022/06/14 05:06:16;;;;;;;10.73;7.60;;;11.80;99.90;;;;;;4997481;28;20035;-76
2022/06/14 05:08:52;;;;;;;10.98;7.60;;;11.90;99.90;;;;;;4997745;28;20082;-76
2022/06/14 05:11:37;;;;;;;9.88;7.28;;;12.00;99.90;;;;;;4997985;28;20035;-76
2022/06/14 05:14:19;;;;;;;9.65;7.63;;;12.10;99.90;;;;;;4997630;28;20034;-76
2022/06/14 05:16:53;;;;;;;10.95;7.60;;;12.20;99.90;;;;;;4997357;28;20039;-76
2022/06/14 05:19:18;;;;;;;13.27;8.63;;;12.30;99.90;;;;;;4997640;28;20035;-76
2022/06/14 05:22:08;;;;;;;12.15;8.32;;;12.40;99.90;;;;;;4997408;28;20416;-76
2022/06/14 05:24:35;;;;;;;11.25;7.22;;;12.60;99.90;;;;;;4997496;28;20484;-76
2022/06/14 05:27:32;;;;;;;11.60;7.57;;;12.70;99.90;;;;;;4997321;28;20046;-76
2022/06/14 05:30:03;;;;;;;11.73;7.80;;;12.80;99.90;;;;;;4997533;28;20038;-76
2022/06/14 05:32:58;;;;;;;10.77;7.70;;;13.00;99.90;;;;;;4997560;28;20037;-76
2022/06/14 05:35:51;;;;;;;9.40;7.55;;;13.10;99.90;;;;;;4995081;28;20047;-76
2022/06/14 05:38:37;;;;;;;11.15;7.50;;;13.20;99.90;;;;;;4995629;28;20038;-76
2022/06/14 05:41:06;;;;;;;11.50;7.32;;;13.30;99.90;;;;;;4996463;28;20043;-76
2022/06/14 05:43:44;;;;;;;14.23;7.82;;;13.40;99.90;;;;;;4997012;28;20493;-76
2022/06/14 05:46:12;;;;;;;9.98;6.90;;;13.50;99.90;;;;;;4995645;28;20500;-76
2022/06/14 05:48:58;;;;;;;14.07;7.10;;;13.60;99.90;;;;;;4997083;28;20041;-76
2022/06/14 05:51:31;;;;;;;10.27;6.95;;;13.70;99.90;;;;;;4997314;28;20082;-81
2022/06/14 05:53:59;;;;;;;10.15;6.68;;;13.80;99.90;;;;;;4997091;28;20113;-76
2022/06/14 05:56:32;;;;;;;8.48;6.45;;;13.90;99.90;;;;;;4996444;28;20090;-76
2022/06/14 05:59:16;;;;;;;9.95;7.03;;;14.00;99.90;;;;;;4997042;28;20106;-76
2022/06/14 06:02:08;;;;;;;10.30;6.65;;;14.10;99.90;;;;;;4995354;28;20051;-76
2022/06/14 06:04:57;;;;;;;12.40;6.55;;;14.20;99.90;;;;;;4974654;28;20131;-76
2022/06/14 06:07:31;;;;;;;9.57;6.30;;;14.30;99.90;;;;;;4996802;28;20031;-76
2022/06/14 06:10:19;;;;;;;10.43;6.82;;;14.30;99.90;;;;;;4996096;28;20042;-76
2022/06/14 06:12:58;;;;;;;16.15;7.65;;;14.50;99.90;;;;;;4996672;28;20034;-76
2022/06/14 06:15:28;;;;;;;11.00;6.97;;;14.60;99.90;;;;;;4996525;28;20122;-76
2022/06/14 06:18:09;;;;;;;11.77;7.20;;;14.70;99.90;;;;;;4994671;28;20055;-76
2022/06/14 06:20:57;;;;;;;9.80;6.85;;;14.80;99.90;;;;;;4996433;28;20031;-76
2022/06/14 06:23:23;;;;;;;10.13;6.80;;;14.90;99.90;;;;;;4996309;28;20059;-76
2022/06/14 06:25:53;;;;;;;11.90;7.18;;;15.00;99.90;;;;;;4996361;28;20540;-77
2022/06/14 06:28:28;;;;;;;10.85;7.20;;;15.20;99.90;;;;;;4995978;28;20562;-76
2022/06/14 06:31:01;;;;;;;14.27;7.10;;;15.20;99.90;;;;;;4995087;28;20042;-76
2022/06/14 06:33:29;;;;;;;12.63;7.63;;;15.30;99.90;;;;;;4996956;28;20090;-77
2022/06/14 06:36:17;;;;;;;11.98;7.00;;;15.40;99.90;;;;;;4995840;28;20034;-76
2022/06/14 06:39:04;;;;;;;11.88;7.75;;;15.50;99.90;;;;;;4994667;28;20031;-76
2022/06/14 06:41:50;;;;;;;10.60;6.75;;;15.60;99.90;;;;;;4996045;28;20120;-76
2022/06/14 06:44:47;;;;;;;10.07;7.47;;;15.70;99.90;;;;;;4994507;28;20094;-76
2022/06/14 06:47:38;;;;;;;12.88;7.72;;;15.90;99.90;;;;;;4995154;28;20448;-76
2022/06/14 06:50:11;;;;;;;10.82;7.90;;;16.00;99.90;;;;;;4996573;28;20582;-77
2022/06/14 06:52:53;;;;;;;11.52;7.43;;;16.10;99.90;;;;;;4994943;28;20505;-76
2022/06/14 06:55:42;;;;;;;12.25;7.45;;;16.20;99.90;;;;;;4996197;28;20129;-76
2022/06/14 06:58:37;;;;;;;12.60;7.13;;;16.40;99.90;;;;;;4976226;28;20852;-76
2022/06/14 07:01:14;;;;;;;12.07;6.88;;;16.60;99.90;;;;;;4992696;28;20062;-77
2022/06/14 07:03:56;;;;;;;11.32;6.50;;;16.60;99.90;;;;;;4994556;28;20054;-76
2022/06/14 07:06:25;;;;;;;10.30;6.65;;;16.90;99.90;;;;;;4995849;28;20467;-76
2022/06/14 07:08:58;;;;;;;9.52;6.60;;;17.10;99.90;;;;;;4995713;28;20038;-77
2022/06/14 07:11:32;;;;;;;10.07;6.43;;;17.30;99.90;;;;;;4996019;28;20031;-75
2022/06/14 07:14:15;;;;;;;9.40;6.38;;;17.50;99.90;;;;;;4995603;28;20035;-76
2022/06/14 07:16:49;;;;;;;10.50;5.93;;;17.70;99.90;;;;;;4994028;28;20039;-76
2022/06/14 07:19:59;;;;;;;11.30;6.38;;;17.90;99.90;;;;;;4995835;28;20165;-76
2022/06/14 07:22:38;;;;;;;9.82;5.82;;;18.20;99.90;;;;;;4978491;28;20054;-76
2022/06/14 07:25:20;;;;;;;13.13;5.78;;;18.40;99.90;;;;;;4995360;28;20031;-76
2022/06/14 07:27:52;;;;;;;8.05;5.55;;;18.60;99.90;;;;;;4995328;28;20062;-76
2022/06/14 07:30:24;;;;;;;9.43;5.75;;;18.90;99.90;;;;;;4995770;28;20121;-76
2022/06/14 07:32:52;;;;;;;7.85;5.47;;;19.30;99.90;;;;;;4995470;28;20039;-76
2022/06/14 07:35:27;;;;;;;9.20;5.70;;;19.50;99.90;;;;;;4994735;28;20034;-76
2022/06/14 07:38:05;;;;;;;9.70;5.03;;;19.60;98.90;;;;;;4994273;28;20039;-77
2022/06/14 07:40:36;;;;;;;8.40;5.05;;;19.70;98.80;;;;;;4994657;28;20042;-76
2022/06/14 07:43:11;;;;;;;8.50;5.07;;;19.90;96.70;;;;;;4995707;28;20486;-76
2022/06/14 07:45:48;;;;;;;10.82;4.90;;;20.10;97.20;;;;;;4995385;28;20041;-76
2022/06/14 07:48:40;;;;;;;12.13;5.10;;;20.30;96.70;;;;;;4994074;28;20062;-77
2022/06/14 07:51:15;;;;;;;10.13;4.75;;;20.50;95.10;;;;;;4995451;28;20033;-75
2022/06/14 07:53:47;;;;;;;8.80;4.03;;;20.60;93.00;;;;;;4995474;28;20039;-76
2022/06/14 07:56:38;;;;;;;9.63;4.82;;;20.70;93.10;;;;;;4996213;28;20035;-77
2022/06/14 07:59:16;;;;;;;6.85;4.65;;;20.80;92.80;;;;;;4995468;28;20038;-77
2022/06/14 08:02:03;;;;;;;10.23;4.10;;;21.00;91.20;;;;;;4996552;28;20114;-77
2022/06/14 08:04:36;;;;;;;10.10;3.70;;;21.20;92.10;;;;;;4996337;28;20030;-77
2022/06/14 08:07:09;;;;;;;10.68;4.32;;;21.50;90.90;;;;;;4993986;28;20046;-77
2022/06/14 08:09:40;;;;;;;6.13;3.70;;;21.70;90.50;;;;;;4995713;28;20039;-77
2022/06/14 08:12:35;;;;;;;8.27;3.45;;;21.80;89.90;;;;;;4994897;28;20031;-77
2022/06/14 08:15:25;;;;;;;6.30;3.42;;;22.00;88.90;;;;;;4990825;28;20394;-78
2022/06/14 08:18:00;;;;;;;6.25;3.28;;;22.20;87.50;;;;;;4994660;28;20513;-78
2022/06/14 08:20:44;;;;;;;6.55;2.97;;;22.40;84.20;;;;;;4995673;28;20035;-78
2022/06/14 08:23:26;;;;;;;6.18;3.53;;;22.60;79.40;;;;;;4994135;28;20484;-78
2022/06/14 08:26:00;;;;;;;6.95;3.30;;;22.70;82.10;;;;;;4995618;28;20027;-77
2022/06/14 08:28:36;;;;;;;9.15;3.67;;;22.70;83.60;;;;;;4995590;28;20039;-77
2022/06/14 08:31:17;;;;;;;8.35;3.90;;;22.70;79.50;;;;;;4995932;28;20027;-77
2022/06/14 08:33:57;;;;;;;10.05;3.47;;;22.90;79.60;;;;;;4995575;28;20031;-77
2022/06/14 08:36:29;;;;;;;9.45;3.83;;;22.90;79.00;;;;;;4995452;28;20485;-77
2022/06/14 08:39:01;;;;;;;8.85;3.80;;;22.60;77.70;;;;;;4995420;28;20090;-77
2022/06/14 08:41:57;;;;;;;5.70;3.15;;;22.50;76.70;;;;;;4995305;28;20483;-78
2022/06/14 08:44:35;;;;;;;6.13;3.47;;;22.50;78.00;;;;;;4992039;28;20527;-77
2022/06/14 08:47:16;;;;;;;6.90;3.40;;;22.50;79.20;;;;;;4995199;28;20070;-77
2022/06/14 08:50:00;;;;;;;7.80;3.10;;;22.80;75.00;;;;;;4995449;28;20041;-77
2022/06/14 08:52:53;;;;;;;6.68;2.83;;;23.40;76.10;;;;;;4994069;28;20474;-77
2022/06/14 08:55:33;;;;;;;6.88;3.38;;;23.80;74.40;;;;;;4994094;28;20030;-77
2022/06/14 08:58:22;;;;;;;6.80;3.10;;;23.80;71.10;;;;;;4994311;28;20045;-78
2022/06/14 09:01:18;;;;;;;5.97;2.83;;;23.80;71.80;;;;;;4993575;28;20035;-77
2022/06/14 09:03:59;;;;;;;6.30;3.05;;;24.10;71.40;;;;;;4993431;28;20039;-79
2022/06/14 09:06:50;;;;;;;7.25;3.58;;;24.10;71.20;;;;;;4993331;28;20031;-77
2022/06/14 09:09:50;;;;;;;4.68;3.17;;;23.80;67.60;;;;;;4994822;28;20121;-77
2022/06/14 09:12:31;;;;;;;6.82;3.30;;;24.10;69.40;;;;;;4995178;28;20062;-77
2022/06/14 09:15:11;;;;;;;9.85;3.40;;;24.30;70.70;;;;;;4996423;28;20041;-76
2022/06/14 09:18:04;;;;;;;5.70;3.10;;;24.00;72.30;;;;;;4996899;28;20117;-76
2022/06/14 09:20:39;;;;;;;5.72;3.00;;;24.10;70.20;;;;;;4988818;28;20039;-76
2022/06/14 09:23:44;;;;;;;6.32;3.28;;;24.30;68.10;;;;;;4990779;28;20074;-75
2022/06/14 09:26:33;;;;;;;6.15;2.80;;;24.20;68.60;;;;;;4994872;28;20094;-75
2022/06/14 09:29:07;;;;;;;7.00;3.15;;;24.20;69.40;;;;;;5002306;28;20054;-76
2022/06/14 09:31:39;;;;;;;5.88;3.05;;;24.40;72.00;;;;;;4993776;28;20100;-76
2022/06/14 09:34:19;;;;;;;8.73;3.05;;;24.70;64.80;;;;;;4995411;28;20034;-75
2022/06/14 09:37:05;;;;;;;5.82;3.13;;;24.80;68.20;;;;;;4995651;28;20117;-75
2022/06/14 09:39:40;;;;;;;5.50;3.03;;;25.10;65.60;;;;;;4973953;28;20043;-76
2022/06/14 09:42:26;;;;;;;4.70;2.70;;;25.00;65.90;;;;;;4995153;28;20042;-76
2022/06/14 09:45:28;;;;;;;7.10;3.00;;;25.10;63.40;;;;;;4984054;28;20047;-76
2022/06/14 09:48:03;;;;;;;6.97;2.78;;;24.70;61.00;;;;;;4974393;28;20332;-75
2022/06/14 09:51:09;;;;;;;6.57;3.15;;;24.40;67.10;;;;;;4977037;28;20062;-75
2022/06/14 09:54:10;;;;;;;5.75;2.70;;;24.60;66.80;;;;;;4975786;28;20038;-78
2022/06/14 09:57:06;;;;;;;5.45;3.15;;;24.70;66.20;;;;;;4960606;28;20509;-77
2022/06/14 09:59:38;;;;;;;7.47;2.80;;;24.90;62.00;;;;;;4977842;28;20039;-76
2022/06/14 10:02:32;;;;;;;6.20;2.53;;;25.00;64.30;;;;;;4977128;28;20039;-76
2022/06/14 10:05:25;;;;;;;5.75;3.10;;;25.20;67.00;;;;;;4978891;28;20039;-76
2022/06/14 10:08:10;;;;;;;6.47;3.10;;;25.50;63.40;;;;;;4984291;28;20039;-75
2022/06/14 10:10:52;;;;;;;6.75;3.13;;;25.70;60.90;;;;;;4983571;28;20034;-75
2022/06/14 10:13:29;;;;;;;8.38;3.15;;;25.40;65.00;;;;;;4984219;28;20035;-75
2022/06/14 10:16:30;;;;;;;6.18;3.33;;;25.70;65.60;;;;;;5035092;23;20427;-78
2022/06/14 10:19:24;;;;;;;6.40;3.25;;;25.90;61.90;;;;;;4990668;28;20094;-76
2022/06/14 10:22:02;;;;;;;7.68;3.25;;;25.80;62.30;;;;;;5035877;28;20034;-78
2022/06/14 10:24:34;;;;;;;7.68;3.33;;;25.70;62.70;;;;;;5036018;28;20034;-79
2022/06/14 10:30:22;;;;;;;4.85;2.88;;;25.70;60.40;;;;;;5017144;28;20034;-78
2022/06/14 10:32:59;;;;;;;6.07;3.00;;;26.30;61.90;;;;;;5022811;28;20162;-79
2022/06/14 10:36:00;;;;;;;9.32;3.00;;;26.40;59.90;;;;;;5024639;28;20349;-78
2022/06/14 10:38:35;;;;;;;5.53;3.05;;;26.20;57.40;;;;;;5033602;28;20045;-80
2022/06/14 10:41:08;;;;;;;9.20;3.50;;;25.60;59.50;;;;;;5029304;28;20446;-78
2022/06/14 10:43:46;;;;;;;7.72;3.15;;;25.20;60.50;;;;;;5023399;28;20045;-80
2022/06/14 10:46:17;;;;;;;5.75;3.20;;;25.50;62.30;;;;;;5014119;28;20035;-78
2022/06/14 10:49:10;;;;;;;5.07;3.40;;;26.00;61.50;;;;;;5014166;28;20447;-78
2022/06/14 10:51:45;;;;;;;9.15;3.50;;;26.10;61.80;;;;;;5016839;28;20042;-78
2022/06/14 10:54:16;;;;;;;7.60;2.92;;;26.30;61.90;;;;;;5023544;28;20085;-79
2022/06/14 10:56:49;;;;;;;6.70;3.28;;;26.20;60.80;;;;;;5022621;28;20030;-77
2022/06/14 10:59:42;;;;;;;7.05;3.10;;;26.50;57.90;;;;;;5024759;28;20385;-79
2022/06/14 11:02:35;;;;;;;4.97;2.78;;;26.40;57.60;;;;;;5035263;28;20045;-78
2022/06/14 11:05:21;;;;;;;5.22;2.90;;;26.70;59.10;;;;;;5035923;28;20049;-78
2022/06/14 11:07:58;;;;;;;7.20;2.65;;;26.90;56.40;;;;;;5027909;28;20154;-78
2022/06/14 11:10:50;;;;;;;5.63;3.33;;;27.20;57.90;;;;;;5025958;28;20503;-78
2022/06/14 11:13:44;;;;;;;4.93;2.78;;;27.50;56.80;;;;;;5036418;28;20044;-78
2022/06/14 11:16:20;;;;;;;5.43;2.90;;;27.40;55.50;;;;;;5018961;28;20531;-78
2022/06/14 11:18:51;;;;;;;7.45;2.78;;;27.10;57.50;;;;;;5055970;28;20041;-77
2022/06/14 11:21:43;;;;;;;14.85;4.57;;;27.20;54.60;;;;;;5054703;28;20029;-77
2022/06/14 11:24:34;;;;;;;94.35;19.98;;;27.40;53.80;;;;;;5056902;28;20044;-77
2022/06/14 11:27:21;;;;;;;6.80;2.60;;;27.10;54.50;;;;;;5040623;28;20506;-77
2022/06/14 11:30:23;;;;;;;4.97;2.47;;;27.20;54.90;;;;;;5045704;28;20050;-77
2022/06/14 11:32:52;;;;;;;4.95;2.50;;;27.60;57.00;;;;;;5034649;28;20034;-78
2022/06/14 11:35:24;;;;;;;4.35;2.72;;;27.40;57.60;;;;;;5034039;28;20125;-77
2022/06/14 11:38:12;;;;;;;7.20;3.00;;;27.50;55.00;;;;;;5034996;28;20441;-76
2022/06/14 11:40:51;;;;;;;7.03;2.80;;;28.20;53.20;;;;;;5065741;28;20041;-77
2022/06/14 11:43:27;;;;;;;6.78;2.88;;;28.70;53.90;;;;;;5035008;28;20034;-76
2022/06/14 11:46:02;;;;;;;6.93;2.85;;;29.10;52.80;;;;;;5035883;28;20399;-76
2022/06/14 11:48:43;;;;;;;5.95;3.00;;;28.90;51.10;;;;;;5035512;28;20029;-77
2022/06/14 11:51:11;;;;;;;5.30;2.60;;;28.80;54.20;;;;;;5036404;28;20117;-76
2022/06/14 11:53:43;;;;;;;4.78;2.75;;;28.40;54.40;;;;;;5035806;28;20038;-76
2022/06/14 11:56:33;;;;;;;5.43;3.08;;;28.40;54.60;;;;;;5034289;28;20146;-76
2022/06/14 11:59:10;;;;;;;6.15;2.78;;;28.40;56.90;;;;;;5035183;28;20111;-77
2022/06/14 12:01:41;;;;;;;5.72;2.97;;;28.30;54.90;;;;;;5034686;28;20037;-77
2022/06/14 12:04:35;;;;;;;5.32;2.58;;;28.40;53.30;;;;;;5035811;28;20038;-76
2022/06/14 12:07:11;;;;;;;6.40;2.75;;;28.60;55.30;;;;;;5035910;28;20033;-76
2022/06/14 12:09:40;;;;;;;7.13;2.90;;;28.80;53.60;;;;;;5033675;28;20495;-77
2022/06/14 12:12:26;;;;;;;5.07;2.80;;;29.20;55.60;;;;;;5025503;28;20046;-76
2022/06/14 12:15:03;;;;;;;7.60;2.88;;;28.60;53.50;;;;;;5026508;28;20531;-76
2022/06/14 12:17:49;;;;;;;5.75;2.85;;;28.90;54.70;;;;;;5025776;28;20488;-76
2022/06/14 12:20:20;;;;;;;3.50;2.67;;;28.90;53.30;;;;;;5033548;28;20120;-76
2022/06/14 12:23:07;;;;;;;4.50;2.60;;;29.20;51.70;;;;;;5017485;28;20058;-76
2022/06/14 12:28:51;;;;;;;4.47;2.38;;;28.60;52.20;;;;;;5015169;28;20035;-76
2022/06/14 12:31:22;;;;;;;4.95;2.58;;;28.80;55.20;;;;;;5016319;28;20058;-76
2022/06/14 12:33:56;;;;;;;5.20;2.60;;;28.80;51.40;;;;;;5016532;28;20034;-76
2022/06/14 12:36:27;;;;;;;6.18;2.90;;;28.70;52.50;;;;;;5016476;28;20545;-77
2022/06/14 12:38:56;;;;;;;6.13;3.00;;;29.30;57.70;;;;;;5017705;28;20039;-76
2022/06/14 12:42:09;;;;;;;5.22;2.90;;;29.40;52.30;;;;;;5016420;28;20035;-76
2022/06/14 12:45:17;;;;;;;7.35;3.00;;;29.00;51.60;;;;;;5014803;28;20055;-77
2022/06/14 12:48:10;;;;;;;5.85;2.80;;;28.90;52.70;;;;;;4943828;28;20038;-77
2022/06/14 12:50:43;;;;;;;6.03;2.85;;;29.30;51.80;;;;;;4944242;28;20044;-76
2022/06/14 12:53:19;;;;;;;6.63;3.00;;;29.40;51.80;;;;;;5004205;28;20579;-77
2022/06/14 12:55:52;;;;;;;5.78;3.00;;;29.80;51.40;;;;;;5020368;28;20038;-76
2022/06/14 12:58:24;;;;;;;5.30;2.95;;;29.70;49.30;;;;;;5018852;28;20081;-77
2022/06/14 13:01:20;;;;;;;3.90;2.72;;;30.00;54.00;;;;;;5020840;28;20039;-77
2022/06/14 13:04:10;;;;;;;5.10;2.90;;;30.00;52.80;;;;;;5020679;28;20038;-77
2022/06/14 13:06:42;;;;;;;4.07;2.60;;;29.90;50.90;;;;;;5019703;28;20054;-77
2022/06/14 13:09:10;;;;;;;7.20;2.83;;;30.00;51.10;;;;;;5020567;28;20103;-77
2022/06/14 13:11:44;;;;;;;3.30;2.50;;;30.10;48.80;;;;;;5020422;28;20038;-76
2022/06/14 13:14:29;;;;;;;5.80;2.70;;;30.30;50.50;;;;;;5019568;28;20033;-77
2022/06/14 13:17:08;;;;;;;7.03;2.95;;;31.20;51.80;;;;;;5019206;28;20046;-77
2022/06/14 13:19:39;;;;;;;6.90;2.80;;;31.40;52.60;;;;;;5018030;28;20038;-77
2022/06/14 13:22:35;;;;;;;5.70;2.83;;;31.60;47.90;;;;;;5016886;28;20049;-78
2022/06/14 13:25:42;;;;;;;4.13;2.63;;;32.10;47.50;;;;;;5026833;28;20042;-77
2022/06/14 13:28:24;;;;;;;4.80;2.70;;;33.20;49.40;;;;;;4956142;28;20031;-77
2022/06/14 13:31:22;;;;;;;7.07;2.90;;;33.40;47.40;;;;;;5027418;28;20049;-77
2022/06/14 13:34:18;;;;;;;7.13;2.90;;;33.50;46.70;;;;;;5037754;28;20569;-78
2022/06/14 13:37:12;;;;;;;5.93;2.78;;;33.40;45.00;;;;;;5039837;28;20033;-78
2022/06/14 13:39:56;;;;;;;6.68;3.00;;;33.30;43.90;;;;;;5038288;28;20034;-79
2022/06/14 13:43:06;;;;;;;6.22;2.90;;;33.50;50.10;;;;;;5039136;28;20038;-79
2022/06/14 13:45:54;;;;;;;4.88;2.60;;;34.10;44.70;;;;;;5017985;28;20042;-79
2022/06/14 13:48:40;;;;;;;5.28;2.70;;;33.50;46.70;;;;;;5043951;28;20034;-81
2022/06/14 13:51:15;;;;;;;5.40;2.80;;;33.70;49.10;;;;;;5043854;28;20096;-82
2022/06/14 13:54:02;;;;;;;5.05;2.75;;;35.20;45.60;;;;;;5042103;28;20037;-81
2022/06/14 13:56:42;;;;;;;7.15;3.05;;;35.30;41.30;;;;;;5040526;28;20510;-81
2022/06/14 13:59:14;;;;;;;6.45;3.40;;;36.60;42.10;;;;;;5039359;28;20064;-82
2022/06/14 14:01:58;;;;;;;4.00;2.60;;;36.20;42.00;;;;;;5071359;28;20443;-80
2022/06/14 14:04:46;;;;;;;5.78;2.78;;;34.60;44.30;;;;;;5037996;28;20100;-80
2022/06/14 14:07:20;;;;;;;5.20;2.70;;;34.30;43.90;;;;;;5034891;28;20075;-82
2022/06/14 14:10:06;;;;;;;4.90;2.58;;;35.40;43.80;;;;;;5031127;28;20033;-80
2022/06/14 14:12:54;;;;;;;4.05;2.60;;;35.90;40.40;;;;;;5033207;28;20029;-80
2022/06/14 14:15:39;;;;;;;3.30;2.53;;;37.00;42.60;;;;;;5037717;28;20049;-80
2022/06/14 14:18:26;;;;;;;4.22;2.70;;;37.60;37.60;;;;;;5038765;28;20026;-80
2022/06/14 14:21:00;;;;;;;4.68;2.75;;;38.10;43.30;;;;;;5039281;28;20511;-79
2022/06/14 14:23:59;;;;;;;6.35;2.95;;;37.90;42.30;;;;;;5039359;28;20521;-79
2022/06/14 14:26:34;;;;;;;4.88;3.08;;;37.50;41.00;;;;;;5036904;28;20054;-79
2022/06/14 14:29:23;;;;;;;4.80;2.83;;;37.20;37.70;;;;;;5035863;28;20141;-78
2022/06/14 14:31:56;;;;;;;5.50;2.83;;;37.50;39.60;;;;;;5036361;28;20033;-78
2022/06/14 14:34:41;;;;;;;4.57;2.70;;;37.30;39.00;;;;;;5067652;28;20136;-78
2022/06/14 14:37:18;;;;;;;4.57;2.70;;;38.40;37.60;;;;;;5068405;28;20034;-78
2022/06/14 14:40:02;;;;;;;5.40;2.60;;;37.30;38.10;;;;;;5032496;28;20096;-77
2022/06/14 14:42:30;;;;;;;5.47;2.83;;;37.20;38.30;;;;;;5026539;28;20038;-78
2022/06/14 14:45:20;;;;;;;6.35;3.15;;;37.80;36.50;;;;;;5034365;28;20092;-75
2022/06/14 14:47:53;;;;;;;5.47;3.13;;;37.90;38.30;;;;;;5035814;28;20125;-75
2022/06/14 14:50:22;;;;;;;7.45;3.25;;;38.40;36.50;;;;;;5035564;28;20125;-77
2022/06/14 14:53:00;;;;;;;3.63;2.53;;;39.80;33.40;;;;;;5035585;28;20034;-77
2022/06/14 14:55:44;;;;;;;4.90;3.00;;;38.90;40.40;;;;;;5033897;28;20036;-77
2022/06/14 14:58:19;;;;;;;4.53;2.95;;;38.80;36.10;;;;;;5031464;28;20182;-78
2022/06/14 15:06:43;;;;;;;6.78;2.90;;;38.00;36.80;;;;;;5034516;28;20036;-76
2022/06/14 15:09:16;;;;;;;6.10;2.97;;;37.50;36.50;;;;;;5034366;28;20526;-76
2022/06/14 15:11:57;;;;;;;5.93;2.88;;;37.40;37.00;;;;;;5035454;28;20578;-77
2022/06/14 15:14:25;;;;;;;3.65;2.50;;;37.00;38.30;;;;;;5034533;28;20069;-77
2022/06/14 15:19:59;;;;;;;4.50;3.00;;;38.10;34.70;;;;;;5018187;28;20117;-76
2022/06/14 15:22:43;;;;;;;6.13;2.60;;;37.60;35.10;;;;;;5024815;28;20045;-77
2022/06/14 15:25:23;;;;;;;3.90;2.58;;;38.80;33.80;;;;;;5029815;28;20037;-77
2022/06/14 15:28:06;;;;;;;4.18;2.58;;;38.80;34.20;;;;;;5033294;28;20038;-74
2022/06/14 15:30:43;;;;;;;6.00;2.90;;;38.50;33.80;;;;;;5032349;28;20038;-76
2022/06/14 15:33:12;;;;;;;4.18;2.60;;;38.30;35.40;;;;;;5033331;28;20129;-78
2022/06/14 15:35:48;;;;;;;5.32;2.72;;;38.00;37.70;;;;;;5034441;28;20044;-76
2022/06/14 15:38:24;;;;;;;4.50;2.60;;;38.30;35.00;;;;;;5033105;28;20567;-74
2022/06/14 15:41:08;;;;;;;4.93;2.45;;;38.90;34.00;;;;;;5028181;28;20040;-75
2022/06/14 15:43:34;;;;;;;4.20;2.58;;;38.40;34.60;;;;;;5026738;28;20074;-75
2022/06/14 15:46:00;;;;;;;6.15;2.78;;;39.30;37.90;;;;;;5030298;28;20048;-75
2022/06/14 15:48:37;;;;;;;3.60;2.60;;;38.60;34.20;;;;;;5027908;28;20037;-75
2022/06/14 15:51:12;;;;;;;3.75;2.60;;;38.60;34.10;;;;;;5023207;28;20418;-74
2022/06/14 15:53:41;;;;;;;6.15;2.70;;;37.80;33.60;;;;;;5028960;28;20041;-74
2022/06/14 15:56:21;;;;;;;4.35;2.55;;;38.60;34.90;;;;;;5033731;28;20038;-74
2022/06/14 15:58:51;;;;;;;5.88;2.88;;;39.10;33.80;;;;;;5014882;28;20038;-74
2022/06/14 16:01:30;;;;;;;4.90;2.67;;;40.10;33.20;;;;;;5014519;28;20114;-74
2022/06/14 16:04:03;;;;;;;4.25;2.60;;;40.10;32.80;;;;;;5014884;28;20471;-73
2022/06/14 16:06:57;;;;;;;4.78;3.00;;;39.60;34.30;;;;;;5016627;28;20045;-73
2022/06/14 16:09:32;;;;;;;5.95;2.67;;;38.40;34.90;;;;;;5024764;28;20046;-73
2022/06/14 16:12:04;;;;;;;3.53;2.38;;;37.70;33.50;;;;;;5032939;28;20049;-73
2022/06/14 16:14:48;;;;;;;4.28;2.72;;;38.10;34.20;;;;;;5032310;28;20104;-73
2022/06/14 16:17:21;;;;;;;4.65;3.05;;;38.40;36.00;;;;;;5034943;28;20037;-73
2022/06/14 16:20:17;;;;;;;5.10;2.70;;;38.10;34.80;;;;;;5037220;28;20492;-73
2022/06/14 16:22:44;;;;;;;4.95;2.80;;;37.70;34.60;;;;;;5037847;28;20034;-73
2022/06/14 16:25:14;;;;;;;9.05;3.10;;;36.50;35.00;;;;;;5037343;28;20185;-73
2022/06/14 16:27:54;;;;;;;5.32;2.58;;;35.90;36.30;;;;;;5037722;28;20034;-72
2022/06/14 16:30:39;;;;;;;4.03;2.63;;;35.80;35.70;;;;;;5037407;28;20622;-72
2022/06/14 16:33:27;;;;;;;5.30;2.85;;;34.20;38.30;;;;;;5037638;28;20504;-72
2022/06/14 16:35:57;;;;;;;5.65;2.60;;;32.90;41.80;;;;;;5037362;28;20100;-72
2022/06/14 16:38:54;;;;;;;5.13;2.40;;;31.90;42.40;;;;;;5037215;28;20046;-72
2022/06/14 16:41:53;;;;;;;6.90;2.60;;;30.90;43.10;;;;;;4984291;28;20096;-76
2022/06/14 16:44:53;;;;;;;5.43;2.97;;;30.20;46.70;;;;;;5038081;28;20030;-77
2022/06/14 16:47:56;;;;;;;7.95;2.63;;;29.80;46.70;;;;;;5037605;28;20535;-77
2022/06/14 16:50:49;;;;;;;3.97;2.38;;;29.30;45.60;;;;;;5037481;28;20479;-77
2022/06/14 16:53:33;;;;;;;4.28;2.80;;;29.20;46.50;;;;;;5037736;28;20654;-78
2022/06/14 16:56:04;;;;;;;3.95;2.50;;;29.10;49.40;;;;;;5037633;28;20052;-77
2022/06/14 16:58:46;;;;;;;7.00;2.80;;;29.10;48.70;;;;;;5037626;28;20445;-78
2022/06/14 17:01:31;;;;;;;7.82;3.83;;;29.10;48.30;;;;;;5037686;28;20053;-78
2022/06/14 17:04:15;;;;;;;4.30;2.35;;;28.90;47.00;;;;;;5038136;28;20040;-78
2022/06/14 17:07:07;;;;;;;5.30;2.67;;;28.60;51.50;;;;;;5037844;28;20061;-78
2022/06/14 17:09:50;;;;;;;10.98;3.88;;;28.40;51.20;;;;;;5038370;28;20492;-78
2022/06/14 17:12:30;;;;;;;5.22;3.38;;;28.20;49.30;;;;;;5037383;28;20419;-78
2022/06/14 17:15:43;;;;;;;7.28;3.88;;;28.10;49.60;;;;;;5070420;28;20474;-79
2022/06/14 17:18:11;;;;;;;6.93;2.80;;;27.90;52.00;;;;;;5024896;28;20922;-78
2022/06/14 17:21:09;;;;;;;10.13;2.97;;;27.70;52.90;;;;;;5021243;28;20070;-77
2022/06/14 17:23:46;;;;;;;5.35;2.55;;;27.40;50.50;;;;;;5023680;28;20084;-76
2022/06/14 17:32:07;;;;;;;4.78;2.83;;;27.10;52.80;;;;;;5038254;28;20137;-77
2022/06/14 17:34:35;;;;;;;5.45;2.70;;;26.80;54.50;;;;;;5037134;28;20030;-76
2022/06/14 17:37:07;;;;;;;4.38;2.40;;;26.60;52.90;;;;;;5036242;28;20116;-76
2022/06/14 17:39:41;;;;;;;3.75;2.70;;;26.50;58.20;;;;;;5035471;28;20073;-76
2022/06/14 17:42:13;;;;;;;3.65;2.40;;;26.40;55.40;;;;;;5036910;28;20049;-76
2022/06/14 17:44:44;;;;;;;8.15;2.67;;;26.40;57.30;;;;;;5035103;28;20041;-76
2022/06/14 17:47:16;;;;;;;5.68;2.45;;;26.30;53.40;;;;;;5035290;28;20525;-76
2022/06/14 17:50:06;;;;;;;2.90;2.38;;;26.10;57.10;;;;;;5037102;28;20034;-76
2022/06/14 17:52:41;;;;;;;5.10;2.50;;;26.30;53.80;;;;;;5016386;28;20054;-76
2022/06/14 17:55:18;;;;;;;6.00;2.25;;;26.50;54.70;;;;;;5015219;28;20483;-76
2022/06/14 17:57:52;;;;;;;5.13;2.38;;;26.50;52.60;;;;;;5017111;28;20034;-76
2022/06/14 18:00:43;;;;;;;2.95;2.33;;;26.50;53.90;;;;;;5016928;28;20863;-76
2022/06/14 18:03:11;;;;;;;4.25;2.40;;;26.40;53.80;;;;;;5016727;28;20034;-76
2022/06/14 18:05:54;;;;;;;3.42;2.55;;;26.20;56.10;;;;;;5016286;28;20058;-76
2022/06/14 18:08:20;;;;;;;3.40;2.40;;;26.00;57.10;;;;;;5016576;28;20037;-76
2022/06/14 18:10:50;;;;;;;5.18;2.40;;;25.60;55.50;;;;;;5020592;28;20026;-76
2022/06/14 18:13:21;;;;;;;4.60;2.53;;;25.40;57.20;;;;;;5036395;28;20561;-76
2022/06/14 18:15:55;;;;;;;4.13;2.60;;;25.20;56.20;;;;;;5036036;28;20141;-76
2022/06/14 18:18:25;;;;;;;4.28;2.80;;;25.00;58.50;;;;;;5036546;28;20496;-75